sensor_id;sensor_type;location;lat;lon;timestamp;temperature;humidity
33528;DHT22;19861;42.868;74.608;2022-08-24T00:01:14;17.00;52.40
33528;DHT22;19861;42.868;74.608;2022-08-24T00:03:42;16.80;53.50
33528;DHT22;19861;42.868;74.608;2022-08-24T00:06:11;16.80;53.30
33528;DHT22;19861;42.868;74.608;2022-08-24T00:08:38;16.80;53.70
33528;DHT22;19861;42.868;74.608;2022-08-24T00:11:05;16.90;53.50
33528;DHT22;19861;42.868;74.608;2022-08-24T00:13:32;16.90;54.00
33528;DHT22;19861;42.868;74.608;2022-08-24T00:15:59;16.80;54.20
33528;DHT22;19861;42.868;74.608;2022-08-24T00:18:25;16.90;53.90
33528;DHT22;19861;42.868;74.608;2022-08-24T00:20:52;16.90;53.50
33528;DHT22;19861;42.868;74.608;2022-08-24T00:23:18;17.00;54.00
33528;DHT22;19861;42.868;74.608;2022-08-24T00:25:44;17.10;52.50
33528;DHT22;19861;42.868;74.608;2022-08-24T00:28:10;17.30;52.10
33528;DHT22;19861;42.868;74.608;2022-08-24T00:30:36;17.40;51.80
33528;DHT22;19861;42.868;74.608;2022-08-24T00:33:03;17.40;51.50
33528;DHT22;19861;42.868;74.608;2022-08-24T00:35:29;17.20;52.90
33528;DHT22;19861;42.868;74.608;2022-08-24T00:37:56;17.10;53.70
33528;DHT22;19861;42.868;74.608;2022-08-24T00:40:24;17.10;53.50
33528;DHT22;19861;42.868;74.608;2022-08-24T00:42:51;17.10;54.30
33528;DHT22;19861;42.868;74.608;2022-08-24T00:45:18;17.10;54.50
33528;DHT22;19861;42.868;74.608;2022-08-24T00:47:48;17.20;53.70
33528;DHT22;19861;42.868;74.608;2022-08-24T00:50:58;17.30;53.70
33528;DHT22;19861;42.868;74.608;2022-08-24T00:53:35;17.30;54.00
33528;DHT22;19861;42.868;74.608;2022-08-24T00:56:09;17.30;54.00
33528;DHT22;19861;42.868;74.608;2022-08-24T00:58:48;17.40;54.50
33528;DHT22;19861;42.868;74.608;2022-08-24T01:01:16;17.40;53.90
33528;DHT22;19861;42.868;74.608;2022-08-24T01:03:43;17.50;54.60
33528;DHT22;19861;42.868;74.608;2022-08-24T01:06:12;17.50;54.00
33528;DHT22;19861;42.868;74.608;2022-08-24T01:08:39;17.50;54.00
33528;DHT22;19861;42.868;74.608;2022-08-24T01:11:18;17.50;54.10
33528;DHT22;19861;42.868;74.608;2022-08-24T01:13:47;17.70;53.60
33528;DHT22;19861;42.868;74.608;2022-08-24T01:16:17;17.70;54.20
33528;DHT22;19861;42.868;74.608;2022-08-24T01:19:03;17.90;53.40
33528;DHT22;19861;42.868;74.608;2022-08-24T01:21:53;18.10;53.90
33528;DHT22;19861;42.868;74.608;2022-08-24T01:24:22;18.00;53.50
33528;DHT22;19861;42.868;74.608;2022-08-24T01:26:49;18.00;54.20
33528;DHT22;19861;42.868;74.608;2022-08-24T01:29:19;18.10;53.50
33528;DHT22;19861;42.868;74.608;2022-08-24T01:31:45;18.10;53.90
33528;DHT22;19861;42.868;74.608;2022-08-24T01:34:11;18.20;54.00
33528;DHT22;19861;42.868;74.608;2022-08-24T01:36:45;18.40;52.60
33528;DHT22;19861;42.868;74.608;2022-08-24T01:39:20;18.50;52.50
33528;DHT22;19861;42.868;74.608;2022-08-24T01:41:47;18.70;52.20
33528;DHT22;19861;42.868;74.608;2022-08-24T01:44:14;18.80;51.10
33528;DHT22;19861;42.868;74.608;2022-08-24T01:46:44;19.00;48.40
33528;DHT22;19861;42.868;74.608;2022-08-24T01:49:11;19.30;46.80
33528;DHT22;19861;42.868;74.608;2022-08-24T01:51:38;19.60;47.00
33528;DHT22;19861;42.868;74.608;2022-08-24T01:54:05;19.80;45.70
33528;DHT22;19861;42.868;74.608;2022-08-24T01:56:32;19.90;44.20
33528;DHT22;19861;42.868;74.608;2022-08-24T01:58:59;20.10;43.60
33528;DHT22;19861;42.868;74.608;2022-08-24T02:01:29;20.20;42.90
33528;DHT22;19861;42.868;74.608;2022-08-24T02:03:57;20.60;42.70
33528;DHT22;19861;42.868;74.608;2022-08-24T02:06:25;21.10;42.50
33528;DHT22;19861;42.868;74.608;2022-08-24T02:08:51;21.50;40.80
33528;DHT22;19861;42.868;74.608;2022-08-24T02:11:18;22.20;40.40
33528;DHT22;19861;42.868;74.608;2022-08-24T02:13:44;22.70;38.50
33528;DHT22;19861;42.868;74.608;2022-08-24T02:16:10;23.20;37.70
33528;DHT22;19861;42.868;74.608;2022-08-24T02:18:37;23.40;36.60
33528;DHT22;19861;42.868;74.608;2022-08-24T02:21:11;23.30;36.70
33528;DHT22;19861;42.868;74.608;2022-08-24T02:23:38;23.20;36.80
33528;DHT22;19861;42.868;74.608;2022-08-24T02:26:07;22.90;37.50
33528;DHT22;19861;42.868;74.608;2022-08-24T02:28:34;22.80;37.50
33528;DHT22;19861;42.868;74.608;2022-08-24T02:31:01;22.40;38.30
33528;DHT22;19861;42.868;74.608;2022-08-24T02:33:29;22.10;38.90
33528;DHT22;19861;42.868;74.608;2022-08-24T02:35:55;22.20;38.70
33528;DHT22;19861;42.868;74.608;2022-08-24T02:38:21;22.30;38.40
33528;DHT22;19861;42.868;74.608;2022-08-24T02:40:48;22.90;37.20
33528;DHT22;19861;42.868;74.608;2022-08-24T02:43:14;23.70;35.40
33528;DHT22;19861;42.868;74.608;2022-08-24T02:45:44;24.60;34.30
33528;DHT22;19861;42.868;74.608;2022-08-24T02:48:11;25.10;33.40
33528;DHT22;19861;42.868;74.608;2022-08-24T02:50:44;25.60;32.40
33528;DHT22;19861;42.868;74.608;2022-08-24T02:53:13;25.90;31.80
33528;DHT22;19861;42.868;74.608;2022-08-24T02:55:41;26.40;31.40
33528;DHT22;19861;42.868;74.608;2022-08-24T02:58:09;26.80;30.80
33528;DHT22;19861;42.868;74.608;2022-08-24T03:00:37;26.90;30.10
33528;DHT22;19861;42.868;74.608;2022-08-24T03:03:04;27.10;30.10
33528;DHT22;19861;42.868;74.608;2022-08-24T03:05:31;27.10;30.20
33528;DHT22;19861;42.868;74.608;2022-08-24T03:07:58;26.90;30.10
33528;DHT22;19861;42.868;74.608;2022-08-24T03:10:24;26.40;30.80
33528;DHT22;19861;42.868;74.608;2022-08-24T03:12:54;26.10;31.20
33528;DHT22;19861;42.868;74.608;2022-08-24T03:15:21;25.60;31.20
33528;DHT22;19861;42.868;74.608;2022-08-24T03:17:48;25.50;31.20
33528;DHT22;19861;42.868;74.608;2022-08-24T03:20:16;25.30;31.20
33528;DHT22;19861;42.868;74.608;2022-08-24T03:22:43;25.20;31.30
33528;DHT22;19861;42.868;74.608;2022-08-24T03:25:11;25.00;31.50
33528;DHT22;19861;42.868;74.608;2022-08-24T03:27:37;25.10;30.90
33528;DHT22;19861;42.868;74.608;2022-08-24T03:30:05;24.80;31.30
33528;DHT22;19861;42.868;74.608;2022-08-24T03:32:32;24.70;31.30
33528;DHT22;19861;42.868;74.608;2022-08-24T03:34:58;24.70;32.20
33528;DHT22;19861;42.868;74.608;2022-08-24T03:37:24;24.60;31.90
33528;DHT22;19861;42.868;74.608;2022-08-24T03:39:50;24.40;32.30
33528;DHT22;19861;42.868;74.608;2022-08-24T03:42:17;24.30;32.00
33528;DHT22;19861;42.868;74.608;2022-08-24T03:44:43;24.40;31.70
33528;DHT22;19861;42.868;74.608;2022-08-24T03:47:09;24.30;32.10
33528;DHT22;19861;42.868;74.608;2022-08-24T03:49:36;24.40;32.30
33528;DHT22;19861;42.868;74.608;2022-08-24T03:52:04;24.50;32.40
33528;DHT22;19861;42.868;74.608;2022-08-24T03:54:31;24.40;32.00
33528;DHT22;19861;42.868;74.608;2022-08-24T03:56:57;24.30;32.80
33528;DHT22;19861;42.868;74.608;2022-08-24T03:59:24;23.90;34.30
33528;DHT22;19861;42.868;74.608;2022-08-24T04:01:50;23.90;34.90
33528;DHT22;19861;42.868;74.608;2022-08-24T04:04:17;24.00;34.60
33528;DHT22;19861;42.868;74.608;2022-08-24T04:06:43;24.00;34.30
33528;DHT22;19861;42.868;74.608;2022-08-24T04:09:12;24.40;34.00
33528;DHT22;19861;42.868;74.608;2022-08-24T04:11:39;24.20;34.60
33528;DHT22;19861;42.868;74.608;2022-08-24T04:14:05;24.20;34.40
33528;DHT22;19861;42.868;74.608;2022-08-24T04:16:33;24.40;35.00
33528;DHT22;19861;42.868;74.608;2022-08-24T04:18:59;24.30;37.30
33528;DHT22;19861;42.868;74.608;2022-08-24T04:21:28;24.20;39.30
33528;DHT22;19861;42.868;74.608;2022-08-24T04:23:54;24.00;40.20
33528;DHT22;19861;42.868;74.608;2022-08-24T04:26:23;23.90;39.90
33528;DHT22;19861;42.868;74.608;2022-08-24T04:28:49;23.80;41.80
33528;DHT22;19861;42.868;74.608;2022-08-24T04:31:17;23.80;41.70
33528;DHT22;19861;42.868;74.608;2022-08-24T04:33:45;24.00;41.10
33528;DHT22;19861;42.868;74.608;2022-08-24T04:36:12;23.60;41.30
33528;DHT22;19861;42.868;74.608;2022-08-24T04:38:38;23.80;41.50
33528;DHT22;19861;42.868;74.608;2022-08-24T04:41:07;24.00;40.50
33528;DHT22;19861;42.868;74.608;2022-08-24T04:43:37;24.30;39.60
33528;DHT22;19861;42.868;74.608;2022-08-24T04:46:06;24.20;40.10
33528;DHT22;19861;42.868;74.608;2022-08-24T04:48:33;24.30;39.40
33528;DHT22;19861;42.868;74.608;2022-08-24T04:51:05;24.30;39.20
33528;DHT22;19861;42.868;74.608;2022-08-24T04:53:32;24.30;40.30
33528;DHT22;19861;42.868;74.608;2022-08-24T04:55:59;24.20;38.80
33528;DHT22;19861;42.868;74.608;2022-08-24T04:58:27;24.10;38.70
33528;DHT22;19861;42.868;74.608;2022-08-24T05:00:55;24.50;39.50
33528;DHT22;19861;42.868;74.608;2022-08-24T05:03:22;24.40;39.00
33528;DHT22;19861;42.868;74.608;2022-08-24T05:05:49;24.60;37.40
33528;DHT22;19861;42.868;74.608;2022-08-24T05:08:18;24.80;35.90
33528;DHT22;19861;42.868;74.608;2022-08-24T05:10:46;24.90;35.60
33528;DHT22;19861;42.868;74.608;2022-08-24T05:13:16;24.90;35.10
33528;DHT22;19861;42.868;74.608;2022-08-24T05:15:47;25.00;35.40
33528;DHT22;19861;42.868;74.608;2022-08-24T05:18:16;24.60;37.20
33528;DHT22;19861;42.868;74.608;2022-08-24T05:20:44;24.60;36.90
33528;DHT22;19861;42.868;74.608;2022-08-24T05:23:12;24.70;36.90
33528;DHT22;19861;42.868;74.608;2022-08-24T05:25:39;24.90;35.90
33528;DHT22;19861;42.868;74.608;2022-08-24T05:28:05;25.30;36.10
33528;DHT22;19861;42.868;74.608;2022-08-24T05:30:32;25.40;35.60
33528;DHT22;19861;42.868;74.608;2022-08-24T05:32:58;25.50;37.40
33528;DHT22;19861;42.868;74.608;2022-08-24T05:35:24;25.40;35.10
33528;DHT22;19861;42.868;74.608;2022-08-24T05:37:50;25.30;34.30
33528;DHT22;19861;42.868;74.608;2022-08-24T05:40:18;25.30;33.80
33528;DHT22;19861;42.868;74.608;2022-08-24T05:42:45;25.70;32.30
33528;DHT22;19861;42.868;74.608;2022-08-24T05:45:13;25.90;32.20
33528;DHT22;19861;42.868;74.608;2022-08-24T05:47:39;26.00;32.70
33528;DHT22;19861;42.868;74.608;2022-08-24T05:50:06;26.00;32.60
33528;DHT22;19861;42.868;74.608;2022-08-24T05:52:33;26.00;33.10
33528;DHT22;19861;42.868;74.608;2022-08-24T05:55:00;26.00;33.40
33528;DHT22;19861;42.868;74.608;2022-08-24T05:57:31;25.70;33.00
33528;DHT22;19861;42.868;74.608;2022-08-24T05:59:58;25.70;33.50
33528;DHT22;19861;42.868;74.608;2022-08-24T06:02:24;25.90;33.20
33528;DHT22;19861;42.868;74.608;2022-08-24T06:04:51;26.00;32.50
33528;DHT22;19861;42.868;74.608;2022-08-24T06:07:17;26.20;32.90
33528;DHT22;19861;42.868;74.608;2022-08-24T06:09:44;26.50;31.00
33528;DHT22;19861;42.868;74.608;2022-08-24T06:12:10;26.10;31.40
33528;DHT22;19861;42.868;74.608;2022-08-24T06:14:39;26.30;31.30
33528;DHT22;19861;42.868;74.608;2022-08-24T06:17:09;26.30;29.70
33528;DHT22;19861;42.868;74.608;2022-08-24T06:19:38;26.30;30.00
33528;DHT22;19861;42.868;74.608;2022-08-24T06:22:06;26.20;29.70
33528;DHT22;19861;42.868;74.608;2022-08-24T06:27:37;25.80;31.10
33528;DHT22;19861;42.868;74.608;2022-08-24T06:30:07;26.00;29.90
33528;DHT22;19861;42.868;74.608;2022-08-24T06:32:35;26.10;30.20
33528;DHT22;19861;42.868;74.608;2022-08-24T06:35:02;26.20;31.40
33528;DHT22;19861;42.868;74.608;2022-08-24T06:37:28;26.20;31.00
33528;DHT22;19861;42.868;74.608;2022-08-24T06:39:56;26.20;30.70
33528;DHT22;19861;42.868;74.608;2022-08-24T06:42:22;26.20;31.50
33528;DHT22;19861;42.868;74.608;2022-08-24T06:44:54;26.20;31.80
33528;DHT22;19861;42.868;74.608;2022-08-24T06:47:20;26.30;30.90
33528;DHT22;19861;42.868;74.608;2022-08-24T06:49:47;26.20;30.40
33528;DHT22;19861;42.868;74.608;2022-08-24T06:52:13;26.20;31.80
33528;DHT22;19861;42.868;74.608;2022-08-24T06:54:39;26.20;31.80
33528;DHT22;19861;42.868;74.608;2022-08-24T06:57:13;26.30;33.20
33528;DHT22;19861;42.868;74.608;2022-08-24T06:59:40;26.40;34.70
33528;DHT22;19861;42.868;74.608;2022-08-24T07:02:07;26.20;34.80
33528;DHT22;19861;42.868;74.608;2022-08-24T07:04:34;26.10;34.50
33528;DHT22;19861;42.868;74.608;2022-08-24T07:07:00;26.30;35.20
33528;DHT22;19861;42.868;74.608;2022-08-24T07:09:26;26.10;34.90
33528;DHT22;19861;42.868;74.608;2022-08-24T07:11:55;26.10;35.70
33528;DHT22;19861;42.868;74.608;2022-08-24T07:14:21;26.10;36.00
33528;DHT22;19861;42.868;74.608;2022-08-24T07:16:48;26.30;35.90
33528;DHT22;19861;42.868;74.608;2022-08-24T07:19:14;26.40;34.60
33528;DHT22;19861;42.868;74.608;2022-08-24T07:21:40;26.40;33.70
33528;DHT22;19861;42.868;74.608;2022-08-24T07:24:07;26.60;33.40
33528;DHT22;19861;42.868;74.608;2022-08-24T07:26:33;26.60;32.50
33528;DHT22;19861;42.868;74.608;2022-08-24T07:29:02;26.70;33.30
33528;DHT22;19861;42.868;74.608;2022-08-24T07:31:37;26.80;33.00
33528;DHT22;19861;42.868;74.608;2022-08-24T07:34:04;26.70;33.50
33528;DHT22;19861;42.868;74.608;2022-08-24T07:36:31;26.40;32.10
33528;DHT22;19861;42.868;74.608;2022-08-24T07:38:57;26.30;32.00
33528;DHT22;19861;42.868;74.608;2022-08-24T07:41:25;26.40;31.40
33528;DHT22;19861;42.868;74.608;2022-08-24T07:43:56;26.50;31.00
33528;DHT22;19861;42.868;74.608;2022-08-24T07:46:23;26.40;30.70
33528;DHT22;19861;42.868;74.608;2022-08-24T07:48:54;26.70;30.30
33528;DHT22;19861;42.868;74.608;2022-08-24T07:51:24;26.70;29.30
33528;DHT22;19861;42.868;74.608;2022-08-24T07:53:52;26.80;30.10
33528;DHT22;19861;42.868;74.608;2022-08-24T07:56:18;27.10;30.00
33528;DHT22;19861;42.868;74.608;2022-08-24T07:58:44;27.30;29.70
33528;DHT22;19861;42.868;74.608;2022-08-24T08:01:10;27.20;29.80
33528;DHT22;19861;42.868;74.608;2022-08-24T08:03:37;26.90;32.20
33528;DHT22;19861;42.868;74.608;2022-08-24T08:06:07;26.60;33.00
33528;DHT22;19861;42.868;74.608;2022-08-24T08:08:36;26.70;33.40
33528;DHT22;19861;42.868;74.608;2022-08-24T08:11:03;26.90;32.40
33528;DHT22;19861;42.868;74.608;2022-08-24T08:13:30;27.10;32.50
33528;DHT22;19861;42.868;74.608;2022-08-24T08:16:06;27.20;30.90
33528;DHT22;19861;42.868;74.608;2022-08-24T08:18:36;27.10;30.00
33528;DHT22;19861;42.868;74.608;2022-08-24T08:21:03;26.90;30.70
33528;DHT22;19861;42.868;74.608;2022-08-24T08:23:30;27.10;31.10
33528;DHT22;19861;42.868;74.608;2022-08-24T08:26:35;27.30;31.20
33528;DHT22;19861;42.868;74.608;2022-08-24T08:29:01;27.50;30.00
33528;DHT22;19861;42.868;74.608;2022-08-24T08:31:27;27.50;29.30
33528;DHT22;19861;42.868;74.608;2022-08-24T08:33:54;27.50;28.20
33528;DHT22;19861;42.868;74.608;2022-08-24T08:36:20;27.80;28.60
33528;DHT22;19861;42.868;74.608;2022-08-24T08:38:47;27.60;29.00
33528;DHT22;19861;42.868;74.608;2022-08-24T08:44:05;27.90;28.20
33528;DHT22;19861;42.868;74.608;2022-08-24T08:52:37;28.20;28.20
33528;DHT22;19861;42.868;74.608;2022-08-24T08:55:41;28.40;27.90
33528;DHT22;19861;42.868;74.608;2022-08-24T09:07:14;28.40;27.70
33528;DHT22;19861;42.868;74.608;2022-08-24T09:18:36;28.30;27.80
33528;DHT22;19861;42.868;74.608;2022-08-24T09:24:38;28.60;28.40
33528;DHT22;19861;42.868;74.608;2022-08-24T09:27:34;28.30;27.60
33528;DHT22;19861;42.868;74.608;2022-08-24T09:30:05;28.40;27.40
33528;DHT22;19861;42.868;74.608;2022-08-24T09:33:11;28.50;27.40
33528;DHT22;19861;42.868;74.608;2022-08-24T09:38:23;28.70;27.70
33528;DHT22;19861;42.868;74.608;2022-08-24T10:00:33;28.30;27.90
33528;DHT22;19861;42.868;74.608;2022-08-24T10:03:40;28.30;28.30
33528;DHT22;19861;42.868;74.608;2022-08-24T10:06:31;28.10;28.10
33528;DHT22;19861;42.868;74.608;2022-08-24T10:12:27;27.90;28.60
33528;DHT22;19861;42.868;74.608;2022-08-24T10:15:37;28.10;28.60
33528;DHT22;19861;42.868;74.608;2022-08-24T10:21:17;28.20;29.20
33528;DHT22;19861;42.868;74.608;2022-08-24T10:33:18;28.30;28.30
33528;DHT22;19861;42.868;74.608;2022-08-24T10:38:45;27.80;28.80
33528;DHT22;19861;42.868;74.608;2022-08-24T10:47:25;28.00;29.50
33528;DHT22;19861;42.868;74.608;2022-08-24T10:55:33;27.90;29.00
33528;DHT22;19861;42.868;74.608;2022-08-24T10:58:18;27.80;29.00
33528;DHT22;19861;42.868;74.608;2022-08-24T11:00:49;27.80;29.00
33528;DHT22;19861;42.868;74.608;2022-08-24T11:03:20;27.80;29.30
33528;DHT22;19861;42.868;74.608;2022-08-24T11:05:53;27.70;29.40
33528;DHT22;19861;42.868;74.608;2022-08-24T11:13:38;27.80;29.20
33528;DHT22;19861;42.868;74.608;2022-08-24T11:16:23;27.60;29.20
33528;DHT22;19861;42.868;74.608;2022-08-24T11:18:55;27.50;29.90
33528;DHT22;19861;42.868;74.608;2022-08-24T11:21:47;27.50;30.10
33528;DHT22;19861;42.868;74.608;2022-08-24T11:24:24;27.50;29.70
33528;DHT22;19861;42.868;74.608;2022-08-24T11:29:21;27.60;29.30
33528;DHT22;19861;42.868;74.608;2022-08-24T11:31:49;27.50;29.40
33528;DHT22;19861;42.868;74.608;2022-08-24T11:34:29;27.50;30.00
33528;DHT22;19861;42.868;74.608;2022-08-24T11:36:58;27.50;29.90
33528;DHT22;19861;42.868;74.608;2022-08-24T11:39:28;27.40;29.90
33528;DHT22;19861;42.868;74.608;2022-08-24T11:45:22;27.30;30.00
33528;DHT22;19861;42.868;74.608;2022-08-24T11:53:31;27.40;30.20
33528;DHT22;19861;42.868;74.608;2022-08-24T12:06:29;27.30;30.60
33528;DHT22;19861;42.868;74.608;2022-08-24T12:12:11;27.40;30.30
33528;DHT22;19861;42.868;74.608;2022-08-24T12:17:25;27.10;30.80
33528;DHT22;19861;42.868;74.608;2022-08-24T12:20:00;27.10;30.20
33528;DHT22;19861;42.868;74.608;2022-08-24T12:22:29;27.20;30.00
33528;DHT22;19861;42.868;74.608;2022-08-24T12:24:58;27.20;30.00
33528;DHT22;19861;42.868;74.608;2022-08-24T12:27:31;27.10;29.80
33528;DHT22;19861;42.868;74.608;2022-08-24T12:30:01;27.00;29.60
33528;DHT22;19861;42.868;74.608;2022-08-24T12:32:42;27.00;30.00
33528;DHT22;19861;42.868;74.608;2022-08-24T12:35:28;26.90;29.60
33528;DHT22;19861;42.868;74.608;2022-08-24T12:38:10;26.80;29.90
33528;DHT22;19861;42.868;74.608;2022-08-24T12:41:32;26.80;30.00
33528;DHT22;19861;42.868;74.608;2022-08-24T12:43:47;26.80;30.00
33528;DHT22;19861;42.868;74.608;2022-08-24T12:46:23;26.70;29.90
33528;DHT22;19861;42.868;74.608;2022-08-24T12:49:00;26.70;30.10
33528;DHT22;19861;42.868;74.608;2022-08-24T12:59:55;26.40;29.90
33528;DHT22;19861;42.868;74.608;2022-08-24T13:36:52;26.00;30.40
33528;DHT22;19861;42.868;74.608;2022-08-24T13:44:26;25.80;31.00
33528;DHT22;19861;42.868;74.608;2022-08-24T13:47:15;25.70;31.10
33528;DHT22;19861;42.868;74.608;2022-08-24T13:50:07;25.60;31.60
33528;DHT22;19861;42.868;74.608;2022-08-24T13:52:56;25.50;31.50
33528;DHT22;19861;42.868;74.608;2022-08-24T13:55:46;25.50;31.80
33528;DHT22;19861;42.868;74.608;2022-08-24T13:58:38;25.20;32.40
33528;DHT22;19861;42.868;74.608;2022-08-24T14:09:47;25.00;32.70
33528;DHT22;19861;42.868;74.608;2022-08-24T14:34:59;24.50;35.30
33528;DHT22;19861;42.868;74.608;2022-08-24T14:38:31;24.40;35.60
33528;DHT22;19861;42.868;74.608;2022-08-24T15:00:46;23.80;35.90
33528;DHT22;19861;42.868;74.608;2022-08-24T15:06:35;23.70;37.70
33528;DHT22;19861;42.868;74.608;2022-08-24T15:09:29;23.40;39.10
33528;DHT22;19861;42.868;74.608;2022-08-24T15:14:52;23.10;38.00
33528;DHT22;19861;42.868;74.608;2022-08-24T15:17:22;23.20;39.50
33528;DHT22;19861;42.868;74.608;2022-08-24T15:19:55;23.30;39.50
33528;DHT22;19861;42.868;74.608;2022-08-24T15:27:55;23.10;38.50
33528;DHT22;19861;42.868;74.608;2022-08-24T15:30:29;23.10;38.30
33528;DHT22;19861;42.868;74.608;2022-08-24T15:33:12;23.20;37.50
33528;DHT22;19861;42.868;74.608;2022-08-24T15:35:42;23.20;35.70
33528;DHT22;19861;42.868;74.608;2022-08-24T15:44:06;23.10;38.80
33528;DHT22;19861;42.868;74.608;2022-08-24T15:46:42;23.00;38.90
33528;DHT22;19861;42.868;74.608;2022-08-24T15:49:15;22.80;38.90
33528;DHT22;19861;42.868;74.608;2022-08-24T15:51:45;22.70;38.80
33528;DHT22;19861;42.868;74.608;2022-08-24T15:54:28;22.70;39.30
33528;DHT22;19861;42.868;74.608;2022-08-24T15:59:47;22.70;37.70
33528;DHT22;19861;42.868;74.608;2022-08-24T16:16:06;22.90;36.60
33528;DHT22;19861;42.868;74.608;2022-08-24T16:18:59;22.70;38.80
33528;DHT22;19861;42.868;74.608;2022-08-24T16:21:52;22.60;38.80
33528;DHT22;19861;42.868;74.608;2022-08-24T16:32:24;22.60;36.80
33528;DHT22;19861;42.868;74.608;2022-08-24T16:35:13;22.70;36.60
33528;DHT22;19861;42.868;74.608;2022-08-24T16:37:39;22.70;35.90
33528;DHT22;19861;42.868;74.608;2022-08-24T16:40:07;22.60;35.80
33528;DHT22;19861;42.868;74.608;2022-08-24T16:42:34;22.60;36.40
33528;DHT22;19861;42.868;74.608;2022-08-24T16:45:01;22.50;36.10
33528;DHT22;19861;42.868;74.608;2022-08-24T16:47:30;22.50;37.90
33528;DHT22;19861;42.868;74.608;2022-08-24T16:49:56;22.40;38.00
33528;DHT22;19861;42.868;74.608;2022-08-24T16:52:23;22.30;36.40
33528;DHT22;19861;42.868;74.608;2022-08-24T16:54:50;22.20;38.10
33528;DHT22;19861;42.868;74.608;2022-08-24T16:57:24;22.00;39.10
33528;DHT22;19861;42.868;74.608;2022-08-24T16:59:52;21.80;39.70
33528;DHT22;19861;42.868;74.608;2022-08-24T17:02:20;21.80;39.20
33528;DHT22;19861;42.868;74.608;2022-08-24T17:04:48;21.80;39.20
33528;DHT22;19861;42.868;74.608;2022-08-24T17:07:18;21.70;39.40
33528;DHT22;19861;42.868;74.608;2022-08-24T17:09:46;21.50;40.10
33528;DHT22;19861;42.868;74.608;2022-08-24T17:12:13;21.30;40.90
33528;DHT22;19861;42.868;74.608;2022-08-24T17:14:40;21.10;41.50
33528;DHT22;19861;42.868;74.608;2022-08-24T17:17:09;20.90;40.70
33528;DHT22;19861;42.868;74.608;2022-08-24T17:19:37;20.90;41.40
33528;DHT22;19861;42.868;74.608;2022-08-24T17:22:03;21.20;41.20
33528;DHT22;19861;42.868;74.608;2022-08-24T17:24:30;21.30;40.50
33528;DHT22;19861;42.868;74.608;2022-08-24T17:26:57;21.40;40.30
33528;DHT22;19861;42.868;74.608;2022-08-24T17:29:23;21.40;40.70
33528;DHT22;19861;42.868;74.608;2022-08-24T17:31:51;21.50;39.20
33528;DHT22;19861;42.868;74.608;2022-08-24T17:34:19;21.40;39.70
33528;DHT22;19861;42.868;74.608;2022-08-24T17:36:50;21.40;39.30
33528;DHT22;19861;42.868;74.608;2022-08-24T17:39:17;21.30;39.80
33528;DHT22;19861;42.868;74.608;2022-08-24T17:41:44;21.30;40.10
33528;DHT22;19861;42.868;74.608;2022-08-24T17:44:12;21.40;39.60
33528;DHT22;19861;42.868;74.608;2022-08-24T17:46:39;21.30;40.40
33528;DHT22;19861;42.868;74.608;2022-08-24T17:49:07;21.30;40.40
33528;DHT22;19861;42.868;74.608;2022-08-24T17:51:35;21.10;40.10
33528;DHT22;19861;42.868;74.608;2022-08-24T17:54:01;20.90;41.40
33528;DHT22;19861;42.868;74.608;2022-08-24T17:56:30;20.90;41.70
33528;DHT22;19861;42.868;74.608;2022-08-24T17:59:06;21.00;40.50
33528;DHT22;19861;42.868;74.608;2022-08-24T18:01:45;20.90;40.30
33528;DHT22;19861;42.868;74.608;2022-08-24T18:04:12;21.00;40.00
33528;DHT22;19861;42.868;74.608;2022-08-24T18:06:38;21.10;39.40
33528;DHT22;19861;42.868;74.608;2022-08-24T18:09:07;21.20;40.30
33528;DHT22;19861;42.868;74.608;2022-08-24T18:11:35;21.30;39.90
33528;DHT22;19861;42.868;74.608;2022-08-24T18:14:02;21.20;40.20
33528;DHT22;19861;42.868;74.608;2022-08-24T18:16:28;21.20;40.60
33528;DHT22;19861;42.868;74.608;2022-08-24T18:18:55;21.10;41.30
33528;DHT22;19861;42.868;74.608;2022-08-24T18:21:21;21.10;43.10
33528;DHT22;19861;42.868;74.608;2022-08-24T18:23:48;21.00;42.20
33528;DHT22;19861;42.868;74.608;2022-08-24T18:26:23;20.80;42.70
33528;DHT22;19861;42.868;74.608;2022-08-24T18:28:49;20.60;43.00
33528;DHT22;19861;42.868;74.608;2022-08-24T18:31:15;20.50;42.80
33528;DHT22;19861;42.868;74.608;2022-08-24T18:33:42;20.60;42.40
33528;DHT22;19861;42.868;74.608;2022-08-24T18:36:08;20.50;42.40
33528;DHT22;19861;42.868;74.608;2022-08-24T18:38:34;20.20;43.00
33528;DHT22;19861;42.868;74.608;2022-08-24T18:41:00;20.20;43.40
33528;DHT22;19861;42.868;74.608;2022-08-24T18:43:27;20.00;44.10
33528;DHT22;19861;42.868;74.608;2022-08-24T18:45:54;20.00;42.70
33528;DHT22;19861;42.868;74.608;2022-08-24T18:48:21;20.00;44.00
33528;DHT22;19861;42.868;74.608;2022-08-24T18:50:48;20.10;44.80
33528;DHT22;19861;42.868;74.608;2022-08-24T18:53:15;20.10;44.00
33528;DHT22;19861;42.868;74.608;2022-08-24T18:55:42;20.00;43.90
33528;DHT22;19861;42.868;74.608;2022-08-24T18:58:11;19.90;44.40
33528;DHT22;19861;42.868;74.608;2022-08-24T19:00:38;20.00;43.10
33528;DHT22;19861;42.868;74.608;2022-08-24T19:03:06;19.90;44.20
33528;DHT22;19861;42.868;74.608;2022-08-24T19:05:33;19.90;44.80
33528;DHT22;19861;42.868;74.608;2022-08-24T19:08:00;20.00;42.70
33528;DHT22;19861;42.868;74.608;2022-08-24T19:10:29;20.20;41.70
33528;DHT22;19861;42.868;74.608;2022-08-24T19:13:02;20.30;41.40
33528;DHT22;19861;42.868;74.608;2022-08-24T19:15:29;20.30;42.10
33528;DHT22;19861;42.868;74.608;2022-08-24T19:17:56;20.30;41.30
33528;DHT22;19861;42.868;74.608;2022-08-24T19:20:22;20.40;40.70
33528;DHT22;19861;42.868;74.608;2022-08-24T19:22:49;20.50;40.70
33528;DHT22;19861;42.868;74.608;2022-08-24T19:25:20;20.60;40.10
33528;DHT22;19861;42.868;74.608;2022-08-24T19:27:48;20.60;39.80
33528;DHT22;19861;42.868;74.608;2022-08-24T19:30:15;20.70;40.20
33528;DHT22;19861;42.868;74.608;2022-08-24T19:32:41;20.70;39.80
33528;DHT22;19861;42.868;74.608;2022-08-24T19:35:11;20.70;40.50
33528;DHT22;19861;42.868;74.608;2022-08-24T19:37:39;20.50;40.40
33528;DHT22;19861;42.868;74.608;2022-08-24T19:40:06;20.50;40.80
33528;DHT22;19861;42.868;74.608;2022-08-24T19:42:33;20.60;40.50
33528;DHT22;19861;42.868;74.608;2022-08-24T19:45:00;20.60;42.20
33528;DHT22;19861;42.868;74.608;2022-08-24T19:47:44;20.70;41.10
33528;DHT22;19861;42.868;74.608;2022-08-24T19:50:11;20.60;41.10
33528;DHT22;19861;42.868;74.608;2022-08-24T19:52:39;20.70;43.50
33528;DHT22;19861;42.868;74.608;2022-08-24T19:55:06;20.60;43.50